createdAt,value
2023-05-10T00:00:18.565Z,25.00
2023-05-10T00:01:18.259Z,25.00
2023-05-10T00:02:18.317Z,25.00
2023-05-10T00:03:18.349Z,0.00
2023-05-10T00:04:18.383Z,0.00
2023-05-10T00:05:18.332Z,0.00
2023-05-10T00:06:18.361Z,0.00
2023-05-10T00:07:18.393Z,0.00
2023-05-10T00:08:18.429Z,0.92
2023-05-10T00:09:18.434Z,13.30
2023-05-10T00:10:18.671Z,25.00
2023-05-10T00:11:19.272Z,24.90
2023-05-10T00:12:18.564Z,26.46
2023-05-10T00:13:18.674Z,25.00
2023-05-10T00:14:18.610Z,25.11
2023-05-10T00:15:18.647Z,25.90
2023-05-10T00:16:18.686Z,25.00
2023-05-10T00:17:18.695Z,25.93
2023-05-10T00:18:18.751Z,25.61
2023-05-10T00:19:18.747Z,27.34
2023-05-10T00:20:19.046Z,25.00
2023-05-10T00:21:18.809Z,25.00
2023-05-10T00:22:18.838Z,25.00
2023-05-10T00:23:18.917Z,27.25
2023-05-10T00:24:18.910Z,26.76
2023-05-10T00:25:18.943Z,26.25
2023-05-10T00:26:18.995Z,25.00
2023-05-10T00:27:19.031Z,25.49
2023-05-10T00:28:19.096Z,26.02
2023-05-10T00:29:19.075Z,25.00
2023-05-10T00:30:19.383Z,25.00
2023-05-10T00:31:19.169Z,25.21
2023-05-10T00:32:19.295Z,27.02
2023-05-10T00:33:19.235Z,29.42
2023-05-10T00:34:19.256Z,26.83
2023-05-10T00:35:19.295Z,25.00
2023-05-10T00:36:19.318Z,26.63
2023-05-10T00:37:19.403Z,26.27
2023-05-10T00:38:19.394Z,26.85
2023-05-10T00:39:19.425Z,29.38
2023-05-10T00:40:19.582Z,28.15
2023-05-10T00:41:19.500Z,27.03
2023-05-10T00:42:19.537Z,27.14
2023-05-10T00:43:19.586Z,26.41
2023-05-10T00:44:19.646Z,25.54
2023-05-10T00:45:20.052Z,26.34
2023-05-10T00:46:20.127Z,27.46
2023-05-10T00:47:20.143Z,26.56
2023-05-10T00:48:20.088Z,27.14
2023-05-10T00:49:20.067Z,27.80
2023-05-10T00:50:20.074Z,25.40
2023-05-10T00:51:20.066Z,27.02
2023-05-10T00:52:20.048Z,27.75
2023-05-10T00:53:20.068Z,27.21
2023-05-10T00:54:20.056Z,25.06
2023-05-10T00:55:20.048Z,27.96
2023-05-10T00:56:20.072Z,26.34
2023-05-10T00:57:20.102Z,26.11
2023-05-10T00:58:20.141Z,29.75
2023-05-10T00:59:20.188Z,28.98
2023-05-10T01:00:20.248Z,27.03
2023-05-10T01:01:20.287Z,27.02
2023-05-10T01:02:20.400Z,32.00
2023-05-10T01:03:20.442Z,26.30
2023-05-10T01:04:20.372Z,27.41
2023-05-10T01:05:20.526Z,26.26
2023-05-10T01:06:20.456Z,25.17
2023-05-10T01:07:20.499Z,28.00
2023-05-10T01:08:20.528Z,29.62
2023-05-10T01:09:20.942Z,29.26
2023-05-10T01:10:20.951Z,29.92
2023-05-10T01:11:20.946Z,32.29
2023-05-10T01:12:20.951Z,28.28
2023-05-10T01:13:21.033Z,30.07
2023-05-10T01:14:20.989Z,26.85
2023-05-10T01:15:20.943Z,29.62
2023-05-10T01:16:21.094Z,28.55
2023-05-10T01:17:20.971Z,28.54
2023-05-10T01:18:20.978Z,29.74
2023-05-10T01:19:20.979Z,29.81
2023-05-10T01:20:21.003Z,29.66
2023-05-10T01:21:21.045Z,30.78
2023-05-10T01:22:21.090Z,30.90
2023-05-10T01:23:21.126Z,30.13
2023-05-10T01:24:21.173Z,28.74
2023-05-10T01:25:21.215Z,32.13
2023-05-10T01:26:21.294Z,30.13
2023-05-10T01:27:21.308Z,29.64
2023-05-10T01:28:21.354Z,33.95
2023-05-10T01:29:21.396Z,31.05
2023-05-10T01:31:20.687Z,27.74
2023-05-10T01:32:21.560Z,29.14
2023-05-10T01:33:21.578Z,31.83
2023-05-10T01:34:21.607Z,30.16
2023-05-10T01:35:21.641Z,31.42
2023-05-10T01:36:21.712Z,30.18
2023-05-10T01:37:21.740Z,29.74
2023-05-10T01:38:21.764Z,28.41
2023-05-10T01:39:21.811Z,31.51
2023-05-10T01:40:21.875Z,29.93
2023-05-10T01:41:21.900Z,30.42
2023-05-10T01:42:21.939Z,31.36
2023-05-10T01:43:21.980Z,30.20
2023-05-10T01:44:22.036Z,28.10
2023-05-10T01:45:22.095Z,28.95
2023-05-10T01:46:22.130Z,31.63
2023-05-10T01:47:22.151Z,29.69
2023-05-10T01:48:22.222Z,28.29
2023-05-10T01:49:22.241Z,29.57
2023-05-10T01:50:22.315Z,31.19
2023-05-10T01:51:22.320Z,29.39
2023-05-10T01:52:22.380Z,30.99
2023-05-10T01:53:22.420Z,28.52
2023-05-10T01:54:22.482Z,30.23
2023-05-10T01:55:22.498Z,27.79
2023-05-10T01:56:22.547Z,31.72
2023-05-10T01:57:22.597Z,27.97
2023-05-10T01:58:22.645Z,29.12
2023-05-10T01:59:22.720Z,29.26
2023-05-10T02:00:22.743Z,26.09
2023-05-10T02:01:22.895Z,30.31
2023-05-10T02:02:22.842Z,27.83
2023-05-10T02:03:23.017Z,28.03
2023-05-10T02:04:22.957Z,27.44
2023-05-10T02:05:22.997Z,30.49
2023-05-10T02:06:23.045Z,29.47
2023-05-10T02:07:23.071Z,26.83
2023-05-10T02:08:23.121Z,27.25
2023-05-10T02:09:23.174Z,28.33
2023-05-10T02:10:23.217Z,28.94
2023-05-10T02:11:23.258Z,28.00
2023-05-10T02:12:23.315Z,30.19
2023-05-10T02:13:23.421Z,27.58
2023-05-10T02:14:23.419Z,28.06
2023-05-10T02:15:23.479Z,26.74
2023-05-10T02:16:23.553Z,27.36
2023-05-10T02:17:23.572Z,27.88
2023-05-10T02:18:23.639Z,27.90
2023-05-10T02:19:23.694Z,27.97
2023-05-10T02:20:23.774Z,27.55
2023-05-10T02:21:23.802Z,28.89
2023-05-10T02:22:23.869Z,27.11
2023-05-10T02:23:23.919Z,28.96
2023-05-10T02:24:23.971Z,26.71
2023-05-10T02:25:24.077Z,27.63
2023-05-10T02:26:24.105Z,28.20
2023-05-10T02:27:24.154Z,30.22
2023-05-10T02:28:24.191Z,29.65
2023-05-10T02:29:24.274Z,26.06
2023-05-10T02:30:24.311Z,30.35
2023-05-10T02:31:24.444Z,29.60
2023-05-10T02:32:24.438Z,28.00
2023-05-10T02:33:24.475Z,28.90
2023-05-10T02:34:24.533Z,28.87
2023-05-10T02:35:24.600Z,27.70
2023-05-10T02:36:24.680Z,28.21
2023-05-10T02:37:24.703Z,28.06
2023-05-10T02:38:24.764Z,28.05
2023-05-10T02:39:25.141Z,30.62
2023-05-10T02:40:26.814Z,29.84
2023-05-10T02:41:25.092Z,29.92
2023-05-10T02:42:25.088Z,28.18
2023-05-10T02:43:25.085Z,29.58
2023-05-10T02:44:25.062Z,28.47
2023-05-10T02:45:25.039Z,31.36
2023-05-10T02:46:25.080Z,29.37
2023-05-10T02:47:25.017Z,26.08
2023-05-10T02:48:24.995Z,32.26
2023-05-10T02:49:24.995Z,28.02
2023-05-10T02:50:24.955Z,30.18
2023-05-10T02:51:24.951Z,27.25
2023-05-10T02:52:24.981Z,32.12
2023-05-10T02:53:24.914Z,31.58
2023-05-10T02:54:24.912Z,28.19
2023-05-10T02:55:24.891Z,29.43
2023-05-10T02:56:24.876Z,29.43
2023-05-10T02:57:24.949Z,27.77
2023-05-10T02:58:24.840Z,30.05
2023-05-10T02:59:24.855Z,27.79
2023-05-10T03:00:24.852Z,30.52
2023-05-10T03:01:24.909Z,26.96
2023-05-10T03:02:24.981Z,28.50
2023-05-10T03:03:25.006Z,28.88
2023-05-10T03:04:25.128Z,32.02
2023-05-10T03:05:25.105Z,30.04
2023-05-10T03:06:25.161Z,26.75
2023-05-10T03:07:25.223Z,28.96
2023-05-10T03:08:25.306Z,29.18
2023-05-10T03:09:25.332Z,28.10
2023-05-10T03:10:25.387Z,26.97
2023-05-10T03:11:25.835Z,30.39
2023-05-10T03:12:25.842Z,27.15
2023-05-10T03:13:25.895Z,32.39
2023-05-10T03:14:25.836Z,32.27
2023-05-10T03:15:25.830Z,25.15
2023-05-10T03:16:25.931Z,29.08
2023-05-10T03:17:25.918Z,30.02
2023-05-10T03:18:25.860Z,30.02
2023-05-10T03:19:25.925Z,28.37
2023-05-10T03:20:25.988Z,29.68
2023-05-10T03:21:26.056Z,29.68
2023-05-10T03:22:26.107Z,31.07
2023-05-10T03:23:26.152Z,29.53
2023-05-10T03:24:26.283Z,31.15
2023-05-10T03:25:26.293Z,26.87
2023-05-10T03:26:26.369Z,29.49
2023-05-10T03:27:26.399Z,30.41
2023-05-10T03:28:26.486Z,29.31
2023-05-10T03:29:26.522Z,28.68
2023-05-10T03:30:26.604Z,29.51
2023-05-10T03:31:26.699Z,29.09
2023-05-10T03:32:26.758Z,27.04
2023-05-10T03:33:26.787Z,29.61
2023-05-10T03:34:26.840Z,28.34
2023-05-10T03:35:26.898Z,30.47
2023-05-10T03:36:26.953Z,31.78
2023-05-10T03:37:27.015Z,26.39
2023-05-10T03:38:29.030Z,30.81
2023-05-10T03:39:27.082Z,31.05
2023-05-10T03:40:27.088Z,30.93
2023-05-10T03:41:27.094Z,30.74
2023-05-10T03:42:27.059Z,29.68
2023-05-10T03:43:27.053Z,27.87
2023-05-10T03:44:27.038Z,29.62
2023-05-10T03:45:27.040Z,31.29
2023-05-10T03:46:27.070Z,32.36
2023-05-10T03:47:27.147Z,29.86
2023-05-10T03:48:27.008Z,29.35
2023-05-10T03:49:27.007Z,26.86
2023-05-10T03:50:27.007Z,29.17
2023-05-10T03:51:26.995Z,29.44
2023-05-10T03:52:27.044Z,29.46
2023-05-10T03:53:27.129Z,28.85
2023-05-10T03:54:27.168Z,28.60
2023-05-10T03:55:27.226Z,30.85
2023-05-10T03:56:27.295Z,31.38
2023-05-10T03:57:27.319Z,27.98
2023-05-10T03:58:27.379Z,28.97
2023-05-10T03:59:27.444Z,28.00
2023-05-10T04:00:27.497Z,29.86
2023-05-10T04:01:27.576Z,30.08
2023-05-10T04:02:27.826Z,29.32
2023-05-10T04:03:27.793Z,29.55
2023-05-10T04:04:27.755Z,30.15
2023-05-10T04:05:27.822Z,28.78
2023-05-10T04:06:27.922Z,28.71
2023-05-10T04:07:27.935Z,31.55
2023-05-10T04:08:27.996Z,29.89
2023-05-10T04:09:28.050Z,27.23
2023-05-10T04:10:28.120Z,27.48
2023-05-10T04:11:28.183Z,30.72
2023-05-10T04:12:28.288Z,30.06
2023-05-10T04:13:28.368Z,27.56
2023-05-10T04:14:28.375Z,28.67
2023-05-10T04:15:28.426Z,31.45
2023-05-10T04:16:28.535Z,32.15
2023-05-10T04:17:28.594Z,29.42
2023-05-10T04:18:28.623Z,32.33
2023-05-10T04:19:28.684Z,31.08
2023-05-10T04:20:28.756Z,29.92
2023-05-10T04:21:28.822Z,31.50
2023-05-10T04:22:28.918Z,30.06
2023-05-10T04:23:28.952Z,26.46
2023-05-10T04:24:28.988Z,29.11
2023-05-10T04:25:29.050Z,31.67
2023-05-10T04:26:29.123Z,29.10
2023-05-10T04:27:29.180Z,27.42
2023-05-10T04:28:29.256Z,32.50
2023-05-10T04:29:29.298Z,28.03
2023-05-10T04:30:29.339Z,27.66
2023-05-10T04:31:29.440Z,28.40
2023-05-10T04:32:29.876Z,28.88
2023-05-10T04:33:29.969Z,29.63
2023-05-10T04:34:29.885Z,29.36
2023-05-10T04:35:29.884Z,29.35
2023-05-10T04:36:29.891Z,29.21
2023-05-10T04:37:29.874Z,28.21
2023-05-10T04:38:29.889Z,30.48
2023-05-10T04:39:29.892Z,26.33
2023-05-10T04:40:29.939Z,27.99
2023-05-10T04:41:29.989Z,27.28
2023-05-10T04:42:30.055Z,29.23
2023-05-10T04:43:30.076Z,29.93
2023-05-10T04:44:30.168Z,30.20
2023-05-10T04:45:30.182Z,33.11
2023-05-10T04:46:30.323Z,31.71
2023-05-10T04:47:30.295Z,29.53
2023-05-10T04:48:30.358Z,31.55
2023-05-10T04:49:30.407Z,31.58
2023-05-10T04:50:30.836Z,31.25
2023-05-10T04:51:30.903Z,29.79
2023-05-10T04:52:30.897Z,30.12
2023-05-10T04:53:30.921Z,30.86
2023-05-10T04:54:30.896Z,29.45
2023-05-10T04:55:30.923Z,28.03
2023-05-10T04:56:30.808Z,28.50
2023-05-10T04:57:30.878Z,32.82
2023-05-10T04:58:30.932Z,31.21
2023-05-10T04:59:30.996Z,29.06
2023-05-10T05:00:31.737Z,30.97
2023-05-10T05:01:31.163Z,30.67
2023-05-10T05:02:31.237Z,29.14
2023-05-10T05:03:31.394Z,29.34
2023-05-10T05:04:31.290Z,31.84
2023-05-10T05:05:31.335Z,26.41
2023-05-10T05:06:31.390Z,27.04
2023-05-10T05:07:31.470Z,31.56
2023-05-10T05:08:31.514Z,27.31
2023-05-10T05:09:31.587Z,30.64
2023-05-10T05:10:31.633Z,29.05
2023-05-10T05:11:31.692Z,26.66
2023-05-10T05:12:31.749Z,27.13
2023-05-10T05:13:31.864Z,29.17
2023-05-10T05:14:31.848Z,32.20
2023-05-10T05:15:31.917Z,32.72
2023-05-10T05:16:31.972Z,31.84
2023-05-10T05:17:33.018Z,30.75
2023-05-10T05:18:32.051Z,29.74
2023-05-10T05:19:32.256Z,28.30
2023-05-10T05:20:32.252Z,27.88
2023-05-10T05:21:32.154Z,30.71
2023-05-10T05:22:32.221Z,29.24
2023-05-10T05:23:32.262Z,30.41
2023-05-10T05:24:32.298Z,29.44
2023-05-10T05:25:32.344Z,30.23
2023-05-10T05:26:32.408Z,30.61
2023-05-10T05:27:32.473Z,32.00
2023-05-10T05:28:32.525Z,29.39
2023-05-10T05:29:32.569Z,28.32
2023-05-10T05:30:32.618Z,30.39
2023-05-10T05:31:32.747Z,27.56
2023-05-10T05:32:32.815Z,28.84
2023-05-10T05:33:32.797Z,29.03
2023-05-10T05:34:32.845Z,28.22
2023-05-10T05:35:32.845Z,27.93
2023-05-10T05:36:32.903Z,30.59
2023-05-10T05:37:32.899Z,30.62
2023-05-10T05:38:32.910Z,29.17
2023-05-10T05:39:32.952Z,29.41
2023-05-10T05:40:33.067Z,30.39
2023-05-10T05:41:33.067Z,28.13
2023-05-10T05:42:33.117Z,30.42
2023-05-10T05:43:33.163Z,31.08
2023-05-10T05:44:33.263Z,30.28
2023-05-10T05:45:33.330Z,28.78
2023-05-10T05:46:33.342Z,27.12
2023-05-10T05:47:33.465Z,29.96
2023-05-10T05:48:33.475Z,30.18
2023-05-10T05:49:33.772Z,27.00
2023-05-10T05:50:33.779Z,29.97
2023-05-10T05:51:33.585Z,29.07
2023-05-10T05:52:33.629Z,31.44
2023-05-10T05:53:33.700Z,27.77
2023-05-10T05:54:33.771Z,30.75
2023-05-10T05:55:33.795Z,28.96
2023-05-10T05:56:33.870Z,29.50
2023-05-10T05:57:33.896Z,30.19
2023-05-10T05:58:34.281Z,31.59
2023-05-10T05:59:34.286Z,29.92
2023-05-10T06:00:34.085Z,30.62
2023-05-10T06:01:34.122Z,29.42
2023-05-10T06:02:34.397Z,29.37
2023-05-10T06:03:34.329Z,27.96
2023-05-10T06:04:38.181Z,28.62
2023-05-10T06:05:35.287Z,28.90
2023-05-10T06:06:34.435Z,29.01
2023-05-10T06:07:35.133Z,28.89
2023-05-10T06:08:34.267Z,30.06
2023-05-10T06:09:34.265Z,32.68
2023-05-10T06:10:34.280Z,34.66
2023-05-10T06:11:34.258Z,29.76
2023-05-10T06:12:34.289Z,29.16
2023-05-10T06:13:34.391Z,30.10
2023-05-10T06:14:34.262Z,33.70
2023-05-10T06:15:34.306Z,33.61
2023-05-10T06:16:34.446Z,30.37
2023-05-10T06:17:34.402Z,29.61
2023-05-10T06:18:34.428Z,28.01
2023-05-10T06:19:34.484Z,28.57
2023-05-10T06:20:34.587Z,31.66
2023-05-10T06:21:34.593Z,28.77
2023-05-10T06:22:34.643Z,28.75
2023-05-10T06:23:34.709Z,33.47
2023-05-10T06:24:34.791Z,30.96
2023-05-10T06:25:34.801Z,28.65
2023-05-10T06:26:34.876Z,27.43
2023-05-10T06:27:34.914Z,30.24
2023-05-10T06:28:34.966Z,28.04
2023-05-10T06:29:35.288Z,31.01
2023-05-10T06:30:35.087Z,34.97
2023-05-10T06:31:35.205Z,34.53
2023-05-10T06:32:35.230Z,34.39
2023-05-10T06:33:35.252Z,34.61
2023-05-10T06:34:35.790Z,30.35
2023-05-10T06:35:35.367Z,30.36
2023-05-10T06:36:35.446Z,35.89
2023-05-10T06:37:35.488Z,33.13
2023-05-10T06:38:35.803Z,34.15
2023-05-10T06:39:35.602Z,33.52
2023-05-10T06:40:35.671Z,33.45
2023-05-10T06:41:35.727Z,30.97
2023-05-10T06:42:35.776Z,34.75
2023-05-10T06:43:35.865Z,34.85
2023-05-10T06:44:36.323Z,34.90
2023-05-10T06:45:35.982Z,36.30
2023-05-10T06:46:36.062Z,35.46
2023-05-10T06:47:38.807Z,37.83
2023-05-10T06:48:36.121Z,38.07
2023-05-10T06:49:36.306Z,38.48
2023-05-10T06:50:36.314Z,38.49
2023-05-10T06:51:36.071Z,38.68
2023-05-10T06:52:36.126Z,40.77
2023-05-10T06:53:36.061Z,40.42
2023-05-10T06:54:36.322Z,42.54
2023-05-10T06:55:43.445Z,41.26
2023-05-10T06:56:36.050Z,41.70
2023-05-10T06:57:36.059Z,42.98
2023-05-10T06:58:36.312Z,43.79
2023-05-10T06:59:36.118Z,45.52
2023-05-10T07:00:36.068Z,49.45
2023-05-10T07:01:36.082Z,48.09
2023-05-10T07:02:36.065Z,50.11
2023-05-10T07:03:36.016Z,50.18
2023-05-10T07:04:36.428Z,52.91
2023-05-10T07:05:36.258Z,56.14
2023-05-10T07:06:35.987Z,57.41
2023-05-10T07:07:35.986Z,55.41
2023-05-10T07:08:36.076Z,55.53
2023-05-10T07:09:35.972Z,53.81
2023-05-10T07:10:35.982Z,56.66
2023-05-10T07:11:35.971Z,55.22
2023-05-10T07:12:36.015Z,55.00
2023-05-10T07:13:36.012Z,57.37
2023-05-10T07:14:35.987Z,56.71
2023-05-10T07:15:35.986Z,54.88
2023-05-10T07:16:36.403Z,56.80
2023-05-10T07:17:36.074Z,58.99
2023-05-10T07:18:36.058Z,58.84
2023-05-10T07:19:36.105Z,58.16
2023-05-10T07:20:36.158Z,61.37
2023-05-10T07:21:36.308Z,56.04
2023-05-10T07:22:36.284Z,60.14
2023-05-10T07:23:36.324Z,61.52
2023-05-10T07:24:36.481Z,64.34
2023-05-10T07:25:36.436Z,63.76
2023-05-10T07:26:36.976Z,63.75
2023-05-10T07:27:36.549Z,66.36
2023-05-10T07:28:36.834Z,66.60
2023-05-10T07:29:36.630Z,65.72
2023-05-10T07:30:36.709Z,69.49
2023-05-10T07:31:36.736Z,76.60
2023-05-10T07:32:36.897Z,77.68
2023-05-10T07:33:36.822Z,77.55
2023-05-10T07:34:37.331Z,76.30
2023-05-10T07:35:36.895Z,85.60
2023-05-10T07:36:37.957Z,93.77
2023-05-10T07:37:36.997Z,98.24
2023-05-10T07:38:38.400Z,102.16
2023-05-10T07:39:37.346Z,106.78
2023-05-10T07:40:37.042Z,102.75
2023-05-10T07:41:37.000Z,112.52
2023-05-10T07:42:36.993Z,113.47
2023-05-10T07:43:36.996Z,119.47
2023-05-10T07:44:37.326Z,125.85
2023-05-10T07:45:37.040Z,128.51
2023-05-10T07:46:36.998Z,133.95
2023-05-10T07:47:37.063Z,137.03
2023-05-10T07:48:36.962Z,144.08
2023-05-10T07:49:37.343Z,147.66
2023-05-10T07:50:36.963Z,152.96
2023-05-10T07:51:36.931Z,155.38
2023-05-10T07:52:37.161Z,157.52
2023-05-10T07:53:36.925Z,162.80
2023-05-10T07:54:37.327Z,165.31
2023-05-10T07:55:36.915Z,173.09
2023-05-10T07:56:40.246Z,181.12
2023-05-10T07:57:36.874Z,181.50
2023-05-10T07:58:36.901Z,182.55
2023-05-10T07:59:38.392Z,186.34
2023-05-10T08:00:36.968Z,193.10
2023-05-10T08:01:37.318Z,202.66
2023-05-10T08:02:37.076Z,206.36
2023-05-10T08:03:37.086Z,211.28
2023-05-10T08:04:37.060Z,213.32
2023-05-10T08:05:37.003Z,220.36
2023-05-10T08:06:37.333Z,226.54
2023-05-10T08:07:37.080Z,227.72
2023-05-10T08:08:37.105Z,233.90
2023-05-10T08:09:37.155Z,237.86
2023-05-10T08:10:37.213Z,245.36
2023-05-10T08:11:37.840Z,246.20
2023-05-10T08:12:37.250Z,247.38
2023-05-10T08:13:37.216Z,247.99
2023-05-10T08:14:37.218Z,249.77
2023-05-10T08:15:37.259Z,249.53
2023-05-10T08:16:37.269Z,249.28
2023-05-10T08:17:37.347Z,250.00
2023-05-10T08:18:38.400Z,246.40
2023-05-10T08:19:37.385Z,248.55
2023-05-10T08:20:37.424Z,247.26
2023-05-10T08:21:37.471Z,247.26
2023-05-10T08:22:37.513Z,248.98
2023-05-10T08:23:37.585Z,249.79
2023-05-10T08:24:38.006Z,246.48
2023-05-10T08:25:37.843Z,248.57
2023-05-10T08:26:37.790Z,247.91
2023-05-10T08:27:38.008Z,249.38
2023-05-10T08:28:37.934Z,248.81
2023-05-10T08:29:48.932Z,250.00
2023-05-10T08:30:37.946Z,250.37
2023-05-10T08:31:37.950Z,251.60
2023-05-10T08:32:37.963Z,253.92
2023-05-10T08:33:37.920Z,258.69
2023-05-10T08:34:37.915Z,263.88
2023-05-10T08:35:38.344Z,250.00
2023-05-10T08:36:37.909Z,249.48
2023-05-10T08:37:37.902Z,250.00
2023-05-10T08:38:53.636Z,249.08
2023-05-10T08:39:38.429Z,249.42
2023-05-10T08:40:37.911Z,249.29
2023-05-10T08:41:38.337Z,250.01
2023-05-10T08:42:41.108Z,249.95
2023-05-10T08:43:37.981Z,249.36
2023-05-10T08:44:38.061Z,249.50
2023-05-10T08:45:38.400Z,250.79
2023-05-10T08:46:37.930Z,253.02
2023-05-10T08:47:37.893Z,253.76
2023-05-10T08:48:37.834Z,244.55
2023-05-10T08:49:37.829Z,247.84
2023-05-10T08:50:37.848Z,250.30
2023-05-10T08:51:37.808Z,246.56
2023-05-10T08:52:37.816Z,247.67
2023-05-10T08:53:37.808Z,245.47
2023-05-10T08:54:37.885Z,245.63
2023-05-10T08:55:37.791Z,244.40
2023-05-10T08:56:37.774Z,241.01
2023-05-10T08:57:37.783Z,239.02
2023-05-10T08:58:53.565Z,239.16
2023-05-10T08:59:37.757Z,239.41
2023-05-10T09:00:37.807Z,240.27
2023-05-10T09:01:37.739Z,240.54
2023-05-10T09:02:37.790Z,240.69
2023-05-10T09:03:37.762Z,239.23
2023-05-10T09:04:37.793Z,237.03
2023-05-10T09:05:37.982Z,237.25
2023-05-10T09:06:37.844Z,236.21
2023-05-10T09:07:37.712Z,238.30
2023-05-10T09:08:37.710Z,233.62
2023-05-10T09:09:37.858Z,233.97
2023-05-10T09:10:37.691Z,233.64
2023-05-10T09:11:37.683Z,234.62
2023-05-10T09:12:37.686Z,235.27
2023-05-10T09:13:37.686Z,231.18
2023-05-10T09:14:38.251Z,231.59
2023-05-10T09:15:37.878Z,230.73
2023-05-10T09:16:37.779Z,229.90
2023-05-10T09:17:37.719Z,229.80
2023-05-10T09:18:37.714Z,228.00
2023-05-10T09:19:37.632Z,226.75
2023-05-10T09:20:37.869Z,227.22
2023-05-10T09:21:37.673Z,227.23
2023-05-10T09:22:37.679Z,224.82
2023-05-10T09:23:37.934Z,225.77
2023-05-10T09:24:37.703Z,225.29
2023-05-10T09:25:38.367Z,225.74
2023-05-10T09:26:38.091Z,222.15
2023-05-10T09:27:37.732Z,221.68
2023-05-10T09:28:37.750Z,221.42
2023-05-10T09:29:38.370Z,220.69
2023-05-10T09:30:37.821Z,220.00
2023-05-10T09:31:38.797Z,219.61
2023-05-10T09:32:37.909Z,218.76
2023-05-10T09:33:37.887Z,219.65
2023-05-10T09:34:38.373Z,218.29
2023-05-10T09:35:38.376Z,218.19
2023-05-10T09:36:37.990Z,217.17
2023-05-10T09:37:37.916Z,216.12
2023-05-10T09:38:38.369Z,213.79
2023-05-10T09:39:38.062Z,213.89
2023-05-10T09:40:38.054Z,213.23
2023-05-10T09:41:38.076Z,212.58
2023-05-10T09:42:38.058Z,213.09
2023-05-10T09:43:38.078Z,214.54
2023-05-10T09:44:38.057Z,214.94
2023-05-10T09:45:39.292Z,215.47
2023-05-10T09:46:38.126Z,212.37
2023-05-10T09:47:38.097Z,214.50
2023-05-10T09:48:38.086Z,211.44
2023-05-10T09:49:38.374Z,212.37
2023-05-10T09:50:38.075Z,210.80
2023-05-10T09:51:38.074Z,212.59
2023-05-10T09:52:38.058Z,211.48
2023-05-10T09:53:38.381Z,209.67
2023-05-10T09:54:38.090Z,210.77
2023-05-10T09:55:37.896Z,211.94
2023-05-10T09:56:38.528Z,211.99
2023-05-10T09:57:37.882Z,215.06
2023-05-10T09:58:37.884Z,215.36
2023-05-10T09:59:37.869Z,213.87
2023-05-10T10:00:37.926Z,214.71
2023-05-10T10:01:37.982Z,217.50
2023-05-10T10:02:38.108Z,217.79
2023-05-10T10:03:38.021Z,222.81
2023-05-10T10:04:38.093Z,222.79
2023-05-10T10:05:38.380Z,221.74
2023-05-10T10:06:38.161Z,224.19
2023-05-10T10:07:38.240Z,225.50
2023-05-10T10:08:38.302Z,225.55
2023-05-10T10:09:38.377Z,224.14
2023-05-10T10:10:39.217Z,220.31
2023-05-10T10:11:38.475Z,210.30
2023-05-10T10:12:38.534Z,212.18
2023-05-10T10:13:38.584Z,210.72
2023-05-10T10:14:38.657Z,209.91
2023-05-10T10:15:39.212Z,208.72
2023-05-10T10:16:48.528Z,207.25
2023-05-10T10:17:38.732Z,207.58
2023-05-10T10:18:38.750Z,208.10
2023-05-10T10:19:38.766Z,207.96
2023-05-10T10:20:39.169Z,204.90
2023-05-10T10:21:39.064Z,198.63
2023-05-10T10:22:39.054Z,198.39
2023-05-10T10:23:39.041Z,197.65
2023-05-10T10:24:39.043Z,195.74
2023-05-10T10:25:39.114Z,193.78
2023-05-10T10:26:38.684Z,193.35
2023-05-10T10:27:38.657Z,195.26
2023-05-10T10:28:38.655Z,193.21
2023-05-10T10:29:38.885Z,192.52
2023-05-10T10:30:38.921Z,198.03
2023-05-10T10:31:38.656Z,202.52
2023-05-10T10:32:38.650Z,203.12
2023-05-10T10:33:38.640Z,204.51
2023-05-10T10:34:38.617Z,206.95
2023-05-10T10:35:38.926Z,207.34
2023-05-10T10:36:38.659Z,210.70
2023-05-10T10:38:37.612Z,212.91
2023-05-10T10:39:39.117Z,212.36
2023-05-10T10:40:38.582Z,210.93
2023-05-10T10:41:39.105Z,211.99
2023-05-10T10:42:38.559Z,214.64
2023-05-10T10:43:38.600Z,216.73
2023-05-10T10:44:38.649Z,218.96
2023-05-10T10:45:40.195Z,220.41
2023-05-10T10:46:38.699Z,223.18
2023-05-10T10:47:38.725Z,225.78
2023-05-10T10:48:38.673Z,226.92
2023-05-10T10:49:38.670Z,227.41
2023-05-10T10:50:38.665Z,227.75
2023-05-10T10:51:38.923Z,230.68
2023-05-10T10:52:38.663Z,232.94
2023-05-10T10:53:38.632Z,234.77
2023-05-10T10:54:38.630Z,236.08
2023-05-10T10:55:38.628Z,239.26
2023-05-10T10:56:38.756Z,242.96
2023-05-10T10:57:38.911Z,241.03
2023-05-10T10:58:38.610Z,243.37
2023-05-10T10:59:38.951Z,245.61
2023-05-10T11:00:38.665Z,250.00
2023-05-10T11:01:38.827Z,249.15
2023-05-10T11:02:38.618Z,248.34
2023-05-10T11:03:38.568Z,248.85
2023-05-10T11:04:38.689Z,249.78
2023-05-10T11:05:38.584Z,249.32
2023-05-10T11:06:38.576Z,249.84
2023-05-10T11:07:38.542Z,248.53
2023-05-10T11:08:38.573Z,249.13
2023-05-10T11:09:38.559Z,248.22
2023-05-10T11:10:38.522Z,248.26
2023-05-10T11:11:38.919Z,247.86
2023-05-10T11:12:38.519Z,237.26
2023-05-10T11:13:38.504Z,245.82
2023-05-10T11:14:38.500Z,247.66
2023-05-10T11:15:38.505Z,247.86
2023-05-10T11:16:38.960Z,246.21
2023-05-10T11:17:38.521Z,247.81
2023-05-10T11:18:38.581Z,246.45
2023-05-10T11:19:39.381Z,243.49
2023-05-10T11:20:44.940Z,243.98
2023-05-10T11:21:38.455Z,244.36
2023-05-10T11:22:38.451Z,244.72
2023-05-10T11:23:38.445Z,245.75
2023-05-10T11:24:38.493Z,246.30
2023-05-10T11:25:38.436Z,246.81
2023-05-10T11:26:38.458Z,246.43
2023-05-10T11:27:38.431Z,246.33
2023-05-10T11:28:38.412Z,246.28
2023-05-10T11:29:38.412Z,246.71
2023-05-10T11:30:38.446Z,244.75
2023-05-10T11:31:38.441Z,249.10
2023-05-10T11:32:38.432Z,247.57
2023-05-10T11:33:38.444Z,246.95
2023-05-10T11:34:38.387Z,247.38
2023-05-10T11:36:37.465Z,245.85
2023-05-10T11:37:38.358Z,248.07
2023-05-10T11:38:38.357Z,248.00
2023-05-10T11:39:38.351Z,246.69
2023-05-10T11:40:38.363Z,246.78
2023-05-10T11:41:38.330Z,246.49
2023-05-10T11:42:38.457Z,242.96
2023-05-10T11:43:38.315Z,246.41
2023-05-10T11:44:38.306Z,246.47
2023-05-10T11:45:38.325Z,249.09
2023-05-10T11:46:38.348Z,248.08
2023-05-10T11:47:38.385Z,245.91
2023-05-10T11:48:38.286Z,249.43
2023-05-10T11:49:38.292Z,247.98
2023-05-10T11:50:38.270Z,245.46
2023-05-10T11:51:38.286Z,247.68
2023-05-10T11:52:38.258Z,247.13
2023-05-10T11:53:38.263Z,247.21
2023-05-10T11:54:38.297Z,225.85
2023-05-10T11:55:38.312Z,222.56
2023-05-10T11:56:38.387Z,228.68
2023-05-10T11:57:38.408Z,236.92
2023-05-10T11:58:38.481Z,243.30
2023-05-10T11:59:38.447Z,243.19
2023-05-10T12:00:38.486Z,242.21
2023-05-10T12:01:38.537Z,238.61
2023-05-10T12:02:38.608Z,241.09
2023-05-10T12:03:38.713Z,243.38
2023-05-10T12:04:38.631Z,240.53
2023-05-10T12:05:39.381Z,239.73
2023-05-10T12:06:38.697Z,239.43
2023-05-10T12:07:38.720Z,240.45
2023-05-10T12:08:38.783Z,238.47
2023-05-10T12:09:43.668Z,235.63
2023-05-10T12:10:38.800Z,235.91
2023-05-10T12:11:40.089Z,236.07
2023-05-10T12:12:38.812Z,235.84
2023-05-10T12:13:38.753Z,236.33
2023-05-10T12:14:38.760Z,234.64
2023-05-10T12:15:38.766Z,234.64
2023-05-10T12:16:38.799Z,232.82
2023-05-10T12:17:40.264Z,227.75
2023-05-10T12:18:38.768Z,228.00
2023-05-10T12:19:38.723Z,228.17
2023-05-10T12:20:38.730Z,227.91
2023-05-10T12:21:38.716Z,227.70
2023-05-10T12:22:38.713Z,225.36
2023-05-10T12:23:38.717Z,225.59
2023-05-10T12:24:38.703Z,223.48
2023-05-10T12:25:38.695Z,222.93
2023-05-10T12:26:38.703Z,219.94
2023-05-10T12:27:38.682Z,223.64
2023-05-10T12:28:38.720Z,221.08
2023-05-10T12:29:39.194Z,221.11
2023-05-10T12:30:38.682Z,221.55
2023-05-10T12:31:38.726Z,218.09
2023-05-10T12:32:38.761Z,217.90
2023-05-10T12:33:38.771Z,215.30
2023-05-10T12:34:38.839Z,215.18
2023-05-10T12:35:40.258Z,216.78
2023-05-10T12:36:38.876Z,214.79
2023-05-10T12:37:38.876Z,216.76
2023-05-10T12:38:38.883Z,216.14
2023-05-10T12:39:38.861Z,213.31
2023-05-10T12:40:38.868Z,215.00
2023-05-10T12:41:40.061Z,214.18
2023-05-10T12:42:38.865Z,214.36
2023-05-10T12:43:38.851Z,214.40
2023-05-10T12:44:38.858Z,211.49
2023-05-10T12:45:38.857Z,212.21